createdAt,value
2024-01-07T00:00:29.572Z,40.17
2024-01-07T00:02:59.390Z,67.70
2024-01-07T00:05:30.067Z,39.40
2024-01-07T00:08:00.145Z,33.60
2024-01-07T00:10:29.791Z,32.17
2024-01-07T00:12:59.368Z,29.60
2024-01-07T00:15:32.991Z,33.92
2024-01-07T00:18:01.937Z,33.78
2024-01-07T00:20:31.137Z,31.77
2024-01-07T00:23:00.047Z,29.38
2024-01-07T00:25:30.493Z,38.15
2024-01-07T00:27:59.469Z,26.58
2024-01-07T00:30:31.563Z,28.55
2024-01-07T00:33:03.247Z,28.60
2024-01-07T00:35:32.278Z,28.42
2024-01-07T00:38:02.895Z,26.52
2024-01-07T00:40:34.160Z,25.52
2024-01-07T00:43:03.548Z,26.88
2024-01-07T00:45:34.297Z,31.15
2024-01-07T00:48:04.204Z,36.03
2024-01-07T00:50:34.612Z,33.50
2024-01-07T00:53:03.497Z,33.72
2024-01-07T00:55:33.355Z,26.52
2024-01-07T00:58:02.750Z,27.95
2024-01-07T01:00:33.684Z,28.58
2024-01-07T01:03:02.189Z,29.25
2024-01-07T01:05:31.831Z,38.60
2024-01-07T01:08:00.516Z,34.50
2024-01-07T01:10:31.352Z,37.83
2024-01-07T01:13:00.018Z,33.63
2024-01-07T01:15:29.730Z,35.50
2024-01-07T01:18:01.511Z,29.88
2024-01-07T01:20:31.260Z,28.05
2024-01-07T01:23:00.035Z,35.47
2024-01-07T01:25:29.491Z,25.58
2024-01-07T01:28:00.907Z,26.90
2024-01-07T01:30:33.448Z,29.58
2024-01-07T01:33:05.606Z,28.88
2024-01-07T01:35:34.443Z,25.92
2024-01-07T01:38:04.319Z,23.67
2024-01-07T01:40:33.912Z,27.02
2024-01-07T01:43:06.098Z,23.58
2024-01-07T01:45:36.380Z,24.08
2024-01-07T01:48:08.236Z,31.52
2024-01-07T01:50:37.792Z,25.48
2024-01-07T01:53:09.107Z,37.50
2024-01-07T01:55:38.476Z,31.55
2024-01-07T01:58:11.699Z,30.35
2024-01-07T02:00:40.330Z,36.15
2024-01-07T02:03:12.207Z,21.48
2024-01-07T02:05:42.192Z,42.10
2024-01-07T02:08:13.126Z,34.67
2024-01-07T02:10:43.470Z,36.70
2024-01-07T02:13:14.157Z,26.83
2024-01-07T02:15:44.031Z,28.63
2024-01-07T02:18:15.632Z,34.97
2024-01-07T02:20:47.350Z,28.45
2024-01-07T02:23:18.020Z,28.50
2024-01-07T02:25:51.477Z,33.55
2024-01-07T02:28:20.924Z,31.83
2024-01-07T02:30:51.314Z,36.85
2024-01-07T02:33:19.998Z,35.42
2024-01-07T02:35:51.948Z,32.15
2024-01-07T02:38:24.195Z,39.15
2024-01-07T02:40:55.491Z,35.28
2024-01-07T02:43:26.901Z,35.90
2024-01-07T02:45:57.308Z,30.17
2024-01-07T02:48:27.304Z,27.35
2024-01-07T02:51:01.008Z,27.13
2024-01-07T02:53:31.451Z,24.35
2024-01-07T02:56:02.973Z,28.25
2024-01-07T02:58:34.523Z,29.48
2024-01-07T03:01:03.545Z,34.35
2024-01-07T03:03:32.642Z,33.85
2024-01-07T03:06:02.092Z,30.65
2024-01-07T03:08:31.894Z,33.08
2024-01-07T03:11:08.223Z,35.17
2024-01-07T03:13:37.631Z,36.95
2024-01-07T03:16:08.564Z,44.20
2024-01-07T03:18:38.520Z,68.85
2024-01-07T03:21:07.878Z,41.28
2024-01-07T03:23:38.545Z,43.83
2024-01-07T03:26:08.732Z,45.42
2024-01-07T03:28:38.232Z,51.47
2024-01-07T03:31:10.387Z,44.47
2024-01-07T03:33:40.326Z,54.33
2024-01-07T03:36:16.550Z,54.83
2024-01-07T03:38:45.376Z,38.28
2024-01-07T03:41:22.251Z,34.05
2024-01-07T03:43:51.585Z,39.42
2024-01-07T03:46:20.817Z,44.80
2024-01-07T03:48:52.311Z,34.88
2024-01-07T03:51:21.617Z,47.83
2024-01-07T03:53:50.348Z,40.97
2024-01-07T03:56:21.283Z,39.08
2024-01-07T03:58:50.987Z,48.45
2024-01-07T04:01:20.576Z,41.78
2024-01-07T04:06:32.204Z,36.75
2024-01-07T04:09:01.136Z,42.10
2024-01-07T04:11:35.797Z,32.92
2024-01-07T04:14:05.215Z,49.30
2024-01-07T04:16:36.925Z,48.88
2024-01-07T04:19:06.702Z,34.40
2024-01-07T04:21:36.030Z,44.67
2024-01-07T04:24:05.184Z,46.40
2024-01-07T04:26:35.488Z,43.88
2024-01-07T04:29:04.307Z,49.00
2024-01-07T04:31:35.117Z,54.95
2024-01-07T04:34:04.741Z,47.10
2024-01-07T04:36:40.776Z,51.00
2024-01-07T04:39:11.488Z,40.58
2024-01-07T04:41:41.607Z,43.28
2024-01-07T04:44:13.053Z,39.30
2024-01-07T04:46:42.766Z,48.67
2024-01-07T04:49:12.444Z,36.20
2024-01-07T04:51:41.539Z,45.20
2024-01-07T04:54:13.051Z,48.75
2024-01-07T04:56:43.423Z,93.43
2024-01-07T04:59:13.812Z,46.53
2024-01-07T05:01:42.967Z,30.70
2024-01-07T05:04:12.527Z,32.58
2024-01-07T05:06:42.618Z,49.05
2024-01-07T05:09:11.845Z,68.38
2024-01-07T05:11:44.232Z,52.70
2024-01-07T05:14:17.643Z,67.88
2024-01-07T05:16:47.324Z,60.30
2024-01-07T05:19:16.574Z,33.10
2024-01-07T05:21:46.351Z,48.88
2024-01-07T05:24:15.729Z,56.15
2024-01-07T05:26:47.825Z,49.08
2024-01-07T05:29:16.373Z,74.53
2024-01-07T05:31:44.999Z,53.83
2024-01-07T05:34:14.797Z,42.95
2024-01-07T05:36:43.661Z,48.20
2024-01-07T05:39:13.099Z,53.20
2024-01-07T05:41:42.899Z,45.85
2024-01-07T05:44:16.169Z,49.03
2024-01-07T05:46:45.072Z,55.85
2024-01-07T05:49:16.133Z,73.63
2024-01-07T05:51:45.084Z,41.20
2024-01-07T05:54:15.062Z,47.63
2024-01-07T05:56:44.413Z,82.60
2024-01-07T05:59:15.299Z,51.40
2024-01-07T06:01:45.355Z,70.70
2024-01-07T06:04:14.306Z,41.88
2024-01-07T06:06:44.089Z,49.05
2024-01-07T06:09:13.919Z,56.22
2024-01-07T06:11:43.917Z,49.35
2024-01-07T06:14:14.138Z,49.50
2024-01-07T06:16:43.633Z,43.90
2024-01-07T06:19:14.130Z,50.30
2024-01-07T06:21:44.687Z,40.80
2024-01-07T06:24:13.312Z,58.13
2024-01-07T06:26:43.601Z,28.90
2024-01-07T06:29:17.109Z,35.38
2024-01-07T06:31:47.662Z,39.25
2024-01-07T06:34:17.327Z,35.95
2024-01-07T06:36:46.885Z,51.53
2024-01-07T06:39:19.120Z,51.45
2024-01-07T06:41:49.170Z,43.22
2024-01-07T06:44:21.387Z,40.65
2024-01-07T06:46:50.508Z,45.95
2024-01-07T06:49:20.367Z,51.97
2024-01-07T06:51:50.660Z,42.50
2024-01-07T06:54:22.426Z,48.70
2024-01-07T06:56:54.149Z,47.67
2024-01-07T06:59:25.158Z,64.88
2024-01-07T07:01:56.068Z,53.13
2024-01-07T07:04:26.498Z,44.33
2024-01-07T07:06:56.050Z,48.25
2024-01-07T07:09:25.485Z,47.35
2024-01-07T07:11:57.694Z,37.63
2024-01-07T07:14:27.982Z,49.35
2024-01-07T07:16:58.866Z,46.17
2024-01-07T07:19:27.864Z,41.53
2024-01-07T07:21:57.517Z,44.00
2024-01-07T07:24:27.282Z,48.30
2024-01-07T07:26:59.988Z,48.53
2024-01-07T07:29:31.828Z,44.97
2024-01-07T07:32:01.354Z,51.70
2024-01-07T07:34:31.114Z,46.47
2024-01-07T07:37:00.218Z,37.78
2024-01-07T07:39:29.721Z,44.05
2024-01-07T07:41:59.161Z,32.72
2024-01-07T07:44:33.567Z,43.08
2024-01-07T07:47:04.960Z,37.45
2024-01-07T07:49:34.421Z,41.65
2024-01-07T07:52:03.528Z,52.13
2024-01-07T07:54:36.284Z,40.20
2024-01-07T07:57:05.041Z,47.53
2024-01-07T07:59:37.384Z,33.58
2024-01-07T08:02:06.685Z,33.78
2024-01-07T08:04:36.489Z,41.20
2024-01-07T08:07:06.506Z,41.05
2024-01-07T08:09:38.123Z,36.35
2024-01-07T08:12:09.862Z,42.33
2024-01-07T08:14:42.590Z,39.85
2024-01-07T08:17:11.382Z,36.13
2024-01-07T08:19:40.689Z,23.98
2024-01-07T08:22:10.994Z,27.73
2024-01-07T08:24:43.768Z,27.98
2024-01-07T08:27:12.982Z,25.17
2024-01-07T08:29:45.953Z,34.33
2024-01-07T08:32:20.534Z,31.35
2024-01-07T08:34:53.740Z,24.98
2024-01-07T08:37:23.116Z,27.95
2024-01-07T08:39:52.153Z,21.90
2024-01-07T08:42:21.419Z,24.88
2024-01-07T08:44:52.006Z,21.30
2024-01-07T08:47:22.544Z,24.63
2024-01-07T08:49:57.787Z,38.15
2024-01-07T08:52:28.608Z,33.30
2024-01-07T08:54:58.047Z,28.60
2024-01-07T08:57:27.155Z,25.33
2024-01-07T09:00:02.272Z,25.40
2024-01-07T09:02:32.397Z,25.13
2024-01-07T09:05:01.709Z,33.88
2024-01-07T09:07:30.998Z,26.60
2024-01-07T09:10:01.030Z,26.60
2024-01-07T09:12:30.287Z,21.35
2024-01-07T09:15:01.525Z,24.50
2024-01-07T09:17:31.710Z,25.05
2024-01-07T09:20:00.802Z,23.48
2024-01-07T09:22:30.351Z,16.88
2024-01-07T09:25:00.202Z,22.40
2024-01-07T09:27:28.873Z,20.77
2024-01-07T09:30:01.503Z,33.78
2024-01-07T09:32:36.208Z,23.30
2024-01-07T09:35:09.329Z,20.58
2024-01-07T09:37:40.114Z,17.50
2024-01-07T09:40:11.698Z,27.77
2024-01-07T09:42:41.046Z,15.88
2024-01-07T09:45:13.412Z,19.35
2024-01-07T09:47:45.173Z,18.10
2024-01-07T09:50:17.171Z,19.20
2024-01-07T09:52:48.151Z,17.98
2024-01-07T09:55:31.436Z,14.82
2024-01-07T09:58:01.772Z,14.05
2024-01-07T10:00:31.681Z,19.08
2024-01-07T10:03:02.411Z,16.75
2024-01-07T10:05:34.683Z,14.57
2024-01-07T10:08:10.340Z,15.80
2024-01-07T10:10:43.601Z,12.80
2024-01-07T10:13:13.995Z,17.98
2024-01-07T10:15:45.307Z,11.88
2024-01-07T10:18:18.468Z,17.15
2024-01-07T10:20:48.988Z,12.93
2024-01-07T10:23:22.151Z,14.20
2024-01-07T10:25:52.332Z,16.83
2024-01-07T10:28:21.631Z,14.90
2024-01-07T10:30:54.000Z,24.60
2024-01-07T10:33:26.105Z,14.23
2024-01-07T10:35:57.984Z,21.08
2024-01-07T10:38:26.770Z,14.80
2024-01-07T10:40:57.937Z,14.23
2024-01-07T10:43:29.502Z,9.75
2024-01-07T10:46:07.012Z,10.75
2024-01-07T10:48:41.635Z,17.40
2024-01-07T10:51:11.667Z,10.68
2024-01-07T10:53:44.706Z,22.75
2024-01-07T10:56:20.814Z,9.20
2024-01-07T10:58:51.497Z,8.77
2024-01-07T11:01:20.579Z,14.25
2024-01-07T11:04:00.370Z,14.93
2024-01-07T11:06:40.050Z,14.38
2024-01-07T11:09:22.270Z,13.60
2024-01-07T11:11:53.204Z,11.20
2024-01-07T11:14:56.107Z,12.48
2024-01-07T11:17:47.442Z,11.82
2024-01-07T11:20:22.981Z,14.98
2024-01-07T11:22:57.297Z,8.48
2024-01-07T11:25:36.791Z,8.40
2024-01-07T11:28:06.114Z,10.80
2024-01-07T11:30:42.745Z,7.00
2024-01-07T11:33:17.472Z,11.40
2024-01-07T11:36:08.720Z,8.75
2024-01-07T11:38:39.844Z,10.60
2024-01-07T11:41:11.284Z,9.80
2024-01-07T11:43:56.156Z,10.32
2024-01-07T11:46:25.797Z,8.95
2024-01-07T11:49:00.436Z,12.45
2024-01-07T11:51:33.372Z,13.02
2024-01-07T11:54:03.961Z,11.05
2024-01-07T11:56:32.897Z,11.77
2024-01-07T11:59:01.743Z,12.75
2024-01-07T12:01:33.336Z,6.93
2024-01-07T12:04:04.011Z,10.13
2024-01-07T12:06:37.314Z,10.43
2024-01-07T12:09:07.590Z,12.07
2024-01-07T12:11:36.856Z,9.60
2024-01-07T12:14:06.044Z,7.80
2024-01-07T12:16:35.462Z,7.40
2024-01-07T12:19:04.767Z,6.35
2024-01-07T12:21:35.422Z,7.32
2024-01-07T12:24:05.822Z,12.00
2024-01-07T12:26:35.986Z,5.10
2024-01-07T12:29:08.049Z,6.25
2024-01-07T12:31:37.783Z,7.55
2024-01-07T12:34:07.261Z,6.32
2024-01-07T12:36:39.940Z,7.18
2024-01-07T12:39:12.276Z,5.22
2024-01-07T12:41:42.115Z,6.75
2024-01-07T12:44:10.980Z,4.28
2024-01-07T12:46:40.092Z,8.05
2024-01-07T12:49:09.614Z,7.15
2024-01-07T12:51:40.286Z,12.45
2024-01-07T12:54:09.755Z,7.68
2024-01-07T12:56:39.772Z,8.02
2024-01-07T12:59:09.862Z,6.60
2024-01-07T13:01:39.482Z,6.20
2024-01-07T13:04:11.203Z,10.85
2024-01-07T13:06:44.038Z,3.65
2024-01-07T13:09:13.951Z,8.15
2024-01-07T13:11:42.970Z,6.55
2024-01-07T13:14:14.643Z,13.25
2024-01-07T13:16:43.698Z,29.08
2024-01-07T13:19:15.112Z,14.15
2024-01-07T13:21:46.903Z,21.05
2024-01-07T13:24:16.159Z,22.58
2024-01-07T13:26:45.772Z,6.68
2024-01-07T13:29:15.477Z,6.75
2024-01-07T13:31:45.379Z,8.68
2024-01-07T13:34:15.824Z,7.45
2024-01-07T13:36:46.842Z,5.28
2024-01-07T13:39:17.486Z,5.60
2024-01-07T13:41:46.884Z,5.65
2024-01-07T13:44:18.929Z,6.43
2024-01-07T13:46:48.677Z,7.82
2024-01-07T13:49:17.493Z,4.25
2024-01-07T13:51:47.869Z,8.70
2024-01-07T13:54:18.141Z,5.22
2024-01-07T13:56:49.188Z,3.97
2024-01-07T13:59:19.514Z,4.82
2024-01-07T14:01:51.208Z,5.43
2024-01-07T14:04:24.667Z,4.97
2024-01-07T14:07:01.676Z,4.60
2024-01-07T14:09:33.098Z,2.85
2024-01-07T14:12:04.160Z,4.93
2024-01-07T14:14:33.002Z,3.05
2024-01-07T14:17:02.201Z,6.55
2024-01-07T14:19:31.284Z,8.43
2024-01-07T14:22:03.274Z,3.28
2024-01-07T14:24:36.609Z,4.72
2024-01-07T14:27:08.138Z,5.40
2024-01-07T14:29:37.693Z,4.75
2024-01-07T14:32:11.038Z,4.10
2024-01-07T14:34:45.553Z,3.70
2024-01-07T14:37:16.274Z,5.20
2024-01-07T14:39:49.395Z,10.95
2024-01-07T14:42:21.353Z,3.55
2024-01-07T14:44:51.948Z,3.45
2024-01-07T14:47:24.830Z,2.83
2024-01-07T14:49:54.453Z,6.50
2024-01-07T14:52:28.779Z,8.43
2024-01-07T14:54:58.527Z,16.95
2024-01-07T14:57:27.390Z,9.38
2024-01-07T14:59:56.915Z,4.88
2024-01-07T15:02:29.344Z,7.22
2024-01-07T15:04:59.410Z,4.85
2024-01-07T15:07:32.865Z,4.50
2024-01-07T15:10:01.851Z,9.32
2024-01-07T15:12:38.579Z,8.45
2024-01-07T15:15:10.073Z,4.43
2024-01-07T15:17:40.054Z,2.80
2024-01-07T15:20:10.261Z,3.17
2024-01-07T15:22:43.231Z,4.03
2024-01-07T15:25:13.360Z,7.45
2024-01-07T15:27:46.812Z,9.00
2024-01-07T15:30:18.286Z,7.28
2024-01-07T15:32:47.464Z,9.50
2024-01-07T15:35:18.708Z,4.20
2024-01-07T15:38:01.185Z,6.00
2024-01-07T15:40:32.324Z,4.68
2024-01-07T15:43:02.217Z,4.13
2024-01-07T15:45:31.322Z,5.05
2024-01-07T15:48:00.782Z,5.28
2024-01-07T15:50:30.762Z,2.30
2024-01-07T15:53:06.712Z,7.65
2024-01-07T15:55:37.612Z,3.60
2024-01-07T15:58:07.239Z,4.93
2024-01-07T16:00:39.225Z,3.50
2024-01-07T16:03:08.539Z,4.38
2024-01-07T16:05:37.891Z,9.73
2024-01-07T16:08:09.682Z,5.00
2024-01-07T16:10:38.750Z,2.17
2024-01-07T16:13:08.206Z,4.00
2024-01-07T16:15:37.403Z,3.00
2024-01-07T16:18:07.359Z,3.22
2024-01-07T16:20:36.338Z,2.97
2024-01-07T16:23:07.397Z,2.90
2024-01-07T16:25:36.732Z,2.38
2024-01-07T16:28:08.448Z,4.85
2024-01-07T16:30:37.733Z,4.40
2024-01-07T16:33:09.803Z,3.17
2024-01-07T16:35:41.933Z,2.00
2024-01-07T16:38:14.907Z,8.02
2024-01-07T16:40:45.312Z,2.75
2024-01-07T16:43:15.105Z,2.53
2024-01-07T16:45:44.860Z,5.70
2024-01-07T16:49:52.990Z,2.28
2024-01-07T16:51:05.685Z,2.25
2024-01-07T16:53:36.265Z,9.35
2024-01-07T16:56:10.539Z,5.10
2024-01-07T16:58:39.887Z,5.35
2024-01-07T17:01:09.026Z,2.88
2024-01-07T17:03:38.142Z,3.45
2024-01-07T17:06:08.776Z,3.70
2024-01-07T17:08:39.160Z,3.42
2024-01-07T17:11:08.356Z,3.03
2024-01-07T17:13:38.641Z,2.97
2024-01-07T17:16:08.375Z,2.10
2024-01-07T17:18:37.446Z,5.60
2024-01-07T17:21:07.834Z,2.78
2024-01-07T17:23:38.605Z,6.93
2024-01-07T17:26:10.229Z,5.95
2024-01-07T17:28:40.323Z,19.05
2024-01-07T17:31:10.071Z,7.53
2024-01-07T17:33:38.761Z,8.38
2024-01-07T17:36:08.755Z,7.68
2024-01-07T17:38:39.208Z,6.43
2024-01-07T17:41:09.743Z,6.20
2024-01-07T17:43:40.008Z,3.35
2024-01-07T17:46:10.966Z,2.67
2024-01-07T17:48:43.278Z,6.75
2024-01-07T17:51:13.458Z,3.88
2024-01-07T17:53:43.929Z,4.45
2024-01-07T17:56:22.777Z,4.97
2024-01-07T17:58:52.180Z,4.30
2024-01-07T18:01:21.639Z,6.93
2024-01-07T18:03:51.319Z,4.82
2024-01-07T18:06:20.318Z,3.78
2024-01-07T18:08:52.850Z,9.40
2024-01-07T18:11:24.137Z,3.83
2024-01-07T18:13:57.404Z,4.10
2024-01-07T18:16:28.830Z,3.83
2024-01-07T18:18:57.960Z,2.88
2024-01-07T18:21:26.908Z,3.92
2024-01-07T18:23:56.694Z,3.63
2024-01-07T18:26:28.832Z,2.75
2024-01-07T18:28:59.056Z,8.02
2024-01-07T18:31:30.770Z,3.08
2024-01-07T18:33:59.949Z,2.33
2024-01-07T18:36:29.091Z,11.43
2024-01-07T18:38:58.163Z,4.60
2024-01-07T18:41:29.461Z,3.50
2024-01-07T18:43:58.929Z,10.73
2024-01-07T18:46:30.025Z,2.90
2024-01-07T18:48:59.045Z,2.58
2024-01-07T18:51:28.765Z,4.20
2024-01-07T18:54:04.150Z,7.13
2024-01-07T18:56:35.909Z,4.43
2024-01-07T18:59:05.926Z,4.25
2024-01-07T19:01:39.071Z,3.35
2024-01-07T19:04:10.468Z,2.53
2024-01-07T19:06:42.878Z,3.05
2024-01-07T19:09:13.069Z,6.00
2024-01-07T19:11:45.083Z,3.88
2024-01-07T19:14:14.800Z,3.75
2024-01-07T19:16:44.125Z,5.32
2024-01-07T19:19:14.251Z,10.48
2024-01-07T19:21:43.711Z,4.28
2024-01-07T19:24:12.948Z,4.07
2024-01-07T19:26:45.568Z,6.25
2024-01-07T19:29:17.527Z,2.92
2024-01-07T19:31:46.391Z,7.38
2024-01-07T19:34:17.076Z,2.67
2024-01-07T19:36:47.295Z,3.67
2024-01-07T19:39:17.850Z,3.35
2024-01-07T19:41:48.304Z,6.00
2024-01-07T19:44:21.106Z,9.38
2024-01-07T19:46:51.721Z,3.25
2024-01-07T19:49:22.503Z,6.45
2024-01-07T19:51:51.591Z,5.10
2024-01-07T19:54:21.666Z,3.65
2024-01-07T19:56:55.433Z,4.68
2024-01-07T19:59:25.421Z,6.45
2024-01-07T20:01:59.133Z,3.58
2024-01-07T20:04:30.456Z,4.55
2024-01-07T20:07:04.108Z,3.60
2024-01-07T20:09:36.171Z,10.15
2024-01-07T20:12:07.672Z,4.68
2024-01-07T20:14:38.359Z,6.95
2024-01-07T20:17:08.385Z,4.30
2024-01-07T20:19:38.829Z,9.75
2024-01-07T20:22:10.290Z,4.60
2024-01-07T20:24:41.019Z,4.43
2024-01-07T20:27:11.510Z,4.30
2024-01-07T20:29:41.791Z,2.28
2024-01-07T20:32:10.755Z,4.07
2024-01-07T20:34:39.987Z,5.30
2024-01-07T20:37:09.252Z,5.82
2024-01-07T20:39:39.207Z,3.88
2024-01-07T20:42:22.697Z,3.70
2024-01-07T20:45:01.364Z,6.88
2024-01-07T20:47:30.435Z,9.07
2024-01-07T20:50:00.386Z,5.65
2024-01-07T20:52:29.324Z,5.93
2024-01-07T20:55:07.953Z,7.78
2024-01-07T20:57:39.569Z,5.43
2024-01-07T21:00:12.096Z,4.68
2024-01-07T21:02:42.834Z,5.38
2024-01-07T21:05:12.161Z,7.70
2024-01-07T21:07:42.280Z,4.47
2024-01-07T21:10:11.301Z,8.23
2024-01-07T21:12:42.073Z,5.50
2024-01-07T21:15:13.143Z,11.45
2024-01-07T21:17:43.737Z,3.92
2024-01-07T21:20:14.489Z,7.45
2024-01-07T21:22:44.962Z,6.50
2024-01-07T21:25:16.771Z,4.10
2024-01-07T21:27:48.000Z,4.10
2024-01-07T21:30:17.212Z,4.03
2024-01-07T21:32:47.968Z,4.78
2024-01-07T21:35:18.082Z,4.55
2024-01-07T21:37:47.805Z,3.88
2024-01-07T21:40:17.350Z,4.43
2024-01-07T21:42:48.069Z,3.58
2024-01-07T21:45:20.891Z,6.43
2024-01-07T21:47:50.317Z,5.75
2024-01-07T21:50:20.657Z,5.07
2024-01-07T21:52:58.745Z,5.22
2024-01-07T21:55:27.944Z,5.00
2024-01-07T21:57:57.916Z,3.97
2024-01-07T22:00:27.770Z,2.58
2024-01-07T22:02:56.703Z,1.83
2024-01-07T22:05:26.591Z,6.10
2024-01-07T22:07:56.930Z,2.10
2024-01-07T22:10:26.261Z,3.28
2024-01-07T22:12:55.347Z,2.17
2024-01-07T22:15:28.010Z,1.15
2024-01-07T22:17:57.838Z,1.80
2024-01-07T22:20:27.197Z,1.95
2024-01-07T22:23:00.283Z,1.92
2024-01-07T22:25:29.360Z,1.95
2024-01-07T22:27:58.305Z,2.03
2024-01-07T22:30:29.468Z,2.40
2024-01-07T22:32:58.987Z,2.85
2024-01-07T22:35:28.686Z,2.13
2024-01-07T22:37:58.140Z,1.77
2024-01-07T22:40:27.832Z,2.28
2024-01-07T22:42:57.085Z,2.25
2024-01-07T22:45:31.254Z,2.50
2024-01-07T22:48:00.440Z,5.22
2024-01-07T22:50:30.313Z,2.00
2024-01-07T22:52:59.387Z,1.58
2024-01-07T22:55:28.774Z,2.22
2024-01-07T22:57:58.946Z,2.40
2024-01-07T23:00:29.377Z,2.30
2024-01-07T23:02:58.510Z,1.70
2024-01-07T23:05:28.690Z,1.90
2024-01-07T23:07:58.362Z,2.03
2024-01-07T23:10:27.984Z,2.83
2024-01-07T23:12:57.871Z,3.80
2024-01-07T23:15:28.453Z,2.33
2024-01-07T23:17:58.383Z,2.30
2024-01-07T23:20:28.213Z,2.88
2024-01-07T23:22:59.084Z,2.30
2024-01-07T23:25:28.479Z,2.38
2024-01-07T23:27:59.242Z,2.00
2024-01-07T23:30:29.840Z,1.88
2024-01-07T23:33:00.645Z,1.65
2024-01-07T23:35:43.174Z,2.08
2024-01-07T23:38:15.964Z,4.32
2024-01-07T23:40:46.854Z,2.50
2024-01-07T23:43:15.661Z,2.60
2024-01-07T23:45:46.060Z,3.25
2024-01-07T23:48:16.264Z,4.32
2024-01-07T23:50:45.339Z,2.22
2024-01-07T23:53:17.271Z,2.55
2024-01-07T23:55:47.843Z,3.75
2024-01-07T23:58:17.207Z,2.53
